AirNav  
 
 1476 users online  

M47 Sage Lake Seaplane Base
Hale, Michigan, USA


FAA INFORMATION EFFECTIVE 01 FEBRUARY 2018

Location

FAA Identifier: M47
Lat/Long: 44-21-00.0000N / 083-56-32.0000W
44-21.000000N / 083-56.533333W
44.3500000 / -83.9422222
(estimated)
Elevation: 906 ft. / 276 m (estimated)
From city: 6 miles W of HALE, MI
Time zone: UTC -5 (UTC -4 during Daylight Saving Time)
Zip code: 48635

Seaplane Base Operations

Seaplane Base use: Open to the public
Activation date: 02/2014
Control tower: no
ARTCC: MINNEAPOLIS CENTER
FSS: LANSING FLIGHT SERVICE STATION
NOTAMs facility: LAN (NOTAM-D service available)
Attendance: IRREG
Wind indicator: yes, DUE TO TREES IN CLOSE PROXIMITY WINDSOCK UNRELIABLE IN ALL DIRECTIONS.
Segmented circle: no

Seaplane Base Communications

CTAF: 122.9
WX AWOS-3P at Y31 (12 nm SW): 119.575 (989-787-1100)

Nearby radio navigation aids

VOR radial/distance  VOR name  Freq  Var
BXZr064/12.2WEST BRANCH VOR/DME113.2006W
ASPr263/24.2AU SABLE VOR/DME116.1007W
CGGr127/(39.1)GRAYLING VOR109.8006W

Seaplane Base Services

Runway Information

Runway 14L/32R

Dimensions: 6700 x 300 ft. / 2042 x 91 m
Surface: water
RUNWAY 14L  RUNWAY 32R
Latitude: 44-21.497167N44-20.750833N
Longitude: 083-56.915167W083-55.784000W
Elevation: 906.0 ft.906.0 ft.
Traffic pattern: leftleft

Runway 14R/32L

Dimensions: 6700 x 300 ft. / 2042 x 91 m
Surface: water
RUNWAY 14R  RUNWAY 32L
Latitude: 44-21.481667N44-20.725000N
Longitude: 083-57.756333W083-56.638333W
Elevation: 906.0 ft.906.0 ft.
Traffic pattern: leftleft

Runway 5/23

Dimensions: 5000 x 300 ft. / 1524 x 91 m
Surface: water
RUNWAY 5  RUNWAY 23
Latitude: 44-20.914167N44-21.486000N
Longitude: 083-57.139333W083-56.314667W
Elevation: 906.0 ft.906.0 ft.
Traffic pattern: leftleft

Seaplane Base Ownership and Management from official FAA records

Ownership: Privately-owned
Owner: THOMAS GREEN
532 MIDDLE ISLAND
HALE, MI 48739
Phone 810-348-3536
DOCKING FACILITY PHYSICAL ADDRESS, ON MIDDLE ISLAND.
Manager: THOMAS GREEN
6209 SEYMOUR RD.
SWARTZ CREEK, MI 48473
Phone 810-348-3536

Seaplane Base Operational Statistics

Aircraft based on the field: 1
Single engine airplanes: 1
    
Aircraft operations: 200/year *
50% transient general aviation
50% local general aviation
* for 12-month period ending 31 December 2015

Instrument Procedures

There are no published instrument procedures at M47.

Some nearby airports with instrument procedures:

Y31 - West Branch Community Airport (12 nm SW)
6D9 - Iosco County Airport (22 nm E)
KOSC - Oscoda-Wurtsmith Airport (24 nm E)
KHTL - Roscommon County - Blodgett Memorial Airport (31 nm W)
KGDW - Gladwin Zettel Memorial Airport (32 nm SW)
 
Loc | Ops | Rwys | IFR | FBO | Links
Com | Nav | Svcs | Stats | Notes

AirNav Hotels Sweepstakes
 
Aerial photo
No photo
 
Airport distance calculator
Flying to Sage Lake Seaplane Base? Find the distance to fly.

From to M47

Sunrise and sunset
Times for 21-Feb-2018
 Local
(UTC-5)
 Zulu
(UTC)
Morning civil twilight06:5811:58
Sunrise07:2712:27
Sunset18:1223:12
Evening civil twilight18:4123:41

Current date and time
Zulu (UTC)  21-Feb-2018 15:24:29
Local (UTC-5)  21-Feb-2018 10:24:29
 
METAR
KOSC 
24nm E 
211455Z AUTO 34007KT 10SM BKN021 M01/M05 A3040 RMK AO2 T10151050
KHTL 
31nm W 
211453Z AUTO 30010G19KT 10SM OVC016 M03/M07 A3040 RMK AO2 SLP307 T10331072 51039
KGOV 
39nm NW 
211458Z AUTO 31010KT 9SM OVC016 M04/M07 A3039 RMK AO2 SLP312 T10451070 52039
KIKW 
43nm S 
211455Z AUTO 34008KT 10SM OVC017 00/M03 A3041 RMK AO2 T00001027
KAPN 
46nm N 
211454Z AUTO 32012G18KT 10SM OVC022 M03/M07 A3041 RMK AO2 SLP308 T10331067 51047
TAF
KAPN 
46nm N 
211120Z 2112/2212 31012G20KT P6SM BKN022 FM211500 31012G20KT P6SM SCT030 FM212200 31008KT P6SM FEW030 FM220000 32007KT P6SM FEW250 FM220500 VRB03KT P6SM FEW250
KMBS 
49nm S 
211120Z 2112/2212 31010KT P6SM BKN015 OVC025 TEMPO 2112/2113 P6SM -RASN OVC015 FM211700 33010KT P6SM FEW020 BKN150 FM212000 01006KT P6SM SCT150 FM220600 02005KT P6SM SCT100
NOTAMs
Click for the latest NOTAMs
NOTAMs are issued by the DoD/FAA and will open in a separate window not controlled by AirNav.

 

 
 

Would you like to see your business listed on this page?

 If your business provides an interesting product or service to pilots, flight crews, aircraft, or users of the Sage Lake Seaplane Base, you should consider listing it here.  To start the listing process, click on the button below
 
Add a business
 

Other Pages about Sage Lake Seaplane Base

Update a link
 
Copyright © AirNav, LLC. All rights reserved. Privacy Policy  Contact